Quitaque, Texas
Current Conditions -  °F | °C
As of 10:15 AM on Friday 24 Oct 2014 (Local Time) from KPVW Reporting Station
Clear Clear  
Wind Chill: 63°   Ceiling: Unl
Heat Index: 63°   Visibility: 10mi
Dew Point: 57°   Wind: 9mph
Humidity: 82%   Direction: 260°W
Pressure: 30.17"   Gusts: NA
Location:  34.37°N, 101.06°W
Report Text: KPVW 241515Z AUTO 26008KT 10SM CLR 17/14 A3017 RMK AO2 T01700140
Loading
Personal Weather Stations






























Interactive Weather Map
Tropical Storm Tracking
New forecast layout! Learn more

10-Day Weather Forecast

Advertisements
Track Severe Weather on mobile